Captain Paris — 9HA3544 — position and weather

sailwx.info

Track history (hours):
 
Tides and Currents Weather Stations Pressure Air Temp Water Temp Dewpoint Dewpoint Depression Visibility Wind Speed Wind Dir Waves Ship Positions

Captain Paris

Last reported at 2018-Jan-18 11:52 UTC. Time now 2018-Jan-18 21:51 UTC.
Position N 36°15' E 027°02'.

Length 253 m; draft 10.7 m.

Type: Tanker. MMSI: 229716000.

Date/timePositionNaut miles runAvg speedWind from/ knotsBaromVisibWave heightAir tempDewpointWater temp
2018-Jan-18 11:52N 36°15' E 027°02'1712.5
2018-Jan-18 10:32N 36°27' E 026°48'112.2
2018-Jan-18 10:27N 36°28' E 026°47'511.9
2018-Jan-18 09:59N 36°32' E 026°42'611.8
2018-Jan-18 09:29N 36°36' E 026°38'612.0
2018-Jan-18 09:01N 36°41' E 026°33'611.6
2018-Jan-18 08:30N 36°45' E 026°28'611.7
2018-Jan-18 08:01N 36°49' E 026°23'611.8
2018-Jan-18 07:30N 36°53' E 026°17'712.1
2018-Jan-18 06:57N 36°58' E 026°12'512.1
2018-Jan-18 06:31N 37°03' E 026°09'612.6
2018-Jan-18 06:01N 37°09' E 026°06'713.0
2018-Jan-18 05:31N 37°15' E 026°02'612.8
2018-Jan-18 05:01N 37°20' E 025°58'612.4
2018-Jan-18 04:31N 37°25' E 025°54'612.1
2018-Jan-18 04:01N 37°31' E 025°52'611.9
2018-Jan-18 03:31N 37°37' E 025°51'1011.7
2018-Jan-18 02:42N 37°47' E 025°50'211.6
2018-Jan-18 02:29N 37°49' E 025°50'611.5
2018-Jan-18 01:58N 37°55' E 025°49'  
2018-Jan-10 19:03N 45°06' E 036°37'  
Track history (hours):
 
Tides and Currents Weather Stations Pressure Air Temp Water Temp Dewpoint Dewpoint Depression Visibility Wind Speed Wind Dir Waves Ship Positions

Captain Paris

Last reported at 2018-Jan-18 11:52 UTC. Time now 2018-Jan-18 21:51 UTC.
Position N 36°15' E 027°02'.

Length 253 m; draft 10.7 m.

Type: Tanker. MMSI: 229716000.

Date/timePositionNaut miles runAvg speedWind from/ knotsBaromVisibWave heightAir tempDewpointWater temp
2018-Jan-18 11:52N 36°15' E 027°02'1712.5
2018-Jan-18 10:32N 36°27' E 026°48'112.2
2018-Jan-18 10:27N 36°28' E 026°47'511.9
2018-Jan-18 09:59N 36°32' E 026°42'611.8
2018-Jan-18 09:29N 36°36' E 026°38'612.0
2018-Jan-18 09:01N 36°41' E 026°33'611.6
2018-Jan-18 08:30N 36°45' E 026°28'611.7
2018-Jan-18 08:01N 36°49' E 026°23'611.8
2018-Jan-18 07:30N 36°53' E 026°17'712.1
2018-Jan-18 06:57N 36°58' E 026°12'512.1
2018-Jan-18 06:31N 37°03' E 026°09'612.6
2018-Jan-18 06:01N 37°09' E 026°06'713.0
2018-Jan-18 05:31N 37°15' E 026°02'612.8
2018-Jan-18 05:01N 37°20' E 025°58'612.4
2018-Jan-18 04:31N 37°25' E 025°54'612.1
2018-Jan-18 04:01N 37°31' E 025°52'611.9
2018-Jan-18 03:31N 37°37' E 025°51'1011.7
2018-Jan-18 02:42N 37°47' E 025°50'211.6
2018-Jan-18 02:29N 37°49' E 025°50'611.5
2018-Jan-18 01:58N 37°55' E 025°49'  
2018-Jan-10 19:03N 45°06' E 036°37'  

Dump ship's entire track history